Time;durP1;ratioP1;P1;durP2;ratioP2;P2;SDS_P1;SDS_P2;PMS_P1;PMS_P2;Temp;Humidity;BMP_temperature;BMP_pressure;BME280_temperature;BME280_humidity;BME280_pressure;Samples;Min_cycle;Max_cycle;Signal;HPM_P1;HPM_P2
2021/12/15 00:04:14;;;;;;;24.13;12.57;;;;;;;4.20;95.70;100356.78;10497139;28;20040;-73
2021/12/15 00:09:15;;;;;;;25.35;13.32;;;;;;;3.25;95.58;100184.09;10497361;28;20131;-75
2021/12/15 00:14:19;;;;;;;25.38;13.27;;;;;;;4.24;94.88;100335.34;10498180;28;20502;-73
2021/12/15 00:19:20;;;;;;;31.23;13.63;;;;;;;4.53;95.25;100390.78;10493381;28;20044;-73
2021/12/15 00:24:21;;;;;;;26.65;13.75;;;;;;;3.36;95.05;100214.75;10496832;28;20045;-74
2021/12/15 00:29:22;;;;;;;31.08;13.73;;;;;;;3.11;95.68;100181.75;10496338;28;20048;-74
2021/12/15 00:34:24;;;;;;;25.60;13.85;;;;;;;3.41;96.33;100208.16;10496167;28;20135;-73
2021/12/15 00:39:27;;;;;;;24.55;13.55;;;;;;;4.48;95.65;100384.25;10496363;28;20040;-73
2021/12/15 00:44:28;;;;;;;26.55;13.52;;;;;;;4.29;94.86;100343.69;10478557;28;20055;-73
2021/12/15 00:49:29;;;;;;;27.92;13.98;;;;;;;3.88;95.25;100273.50;10495581;28;20060;-73
2021/12/15 00:54:30;;;;;;;23.38;12.68;;;;;;;4.63;94.77;100397.91;10495236;28;20091;-75
2021/12/15 00:59:32;;;;;;;20.77;11.85;;;;;;;4.65;95.37;100422.31;10496208;28;20142;-74
2021/12/15 01:04:34;;;;;;;24.35;13.10;;;;;;;4.62;95.00;100412.03;10477938;28;20060;-74
2021/12/15 01:09:50;;;;;;;26.02;12.63;;;;;;;3.39;94.65;100209.25;10491038;28;20040;-74
2021/12/15 01:19:47;;;;;;;24.58;12.55;;;;;;;4.46;95.17;100392.28;10496276;28;20072;-74
2021/12/15 01:20:32;;;;;;;23.60;13.38;;;;;;;4.47;95.05;100387.84;10494727;28;20044;-74
2021/12/15 01:25:40;;;;;;;25.55;13.25;;;;;;;3.24;95.09;100197.38;10495470;28;20039;-74
2021/12/15 01:30:45;;;;;;;23.92;12.38;;;;;;;3.46;95.14;100233.22;10495066;28;20040;-74
2021/12/15 01:35:48;;;;;;;26.23;12.90;;;;;;;4.28;95.41;100367.50;10495876;28;20036;-74
2021/12/15 01:40:49;;;;;;;24.45;13.10;;;;;;;4.03;95.38;100326.59;10495424;28;20045;-75
2021/12/15 01:51:13;;;;;;;29.93;11.90;;;;;;;4.07;95.08;100318.34;10494644;28;20048;-74
2021/12/15 01:56:14;;;;;;;28.27;11.90;;;;;;;4.31;95.54;100359.34;10493638;28;20093;-74
2021/12/15 02:01:16;;;;;;;22.75;12.52;;;;;;;4.45;95.67;100374.81;10494214;28;20123;-74
2021/12/15 02:06:17;;;;;;;27.38;12.98;;;;;;;3.39;95.28;100177.75;10498894;28;20036;-74
2021/12/15 02:11:18;;;;;;;27.23;13.05;;;;;;;3.90;95.01;100279.47;10484474;28;20046;-76
2021/12/15 02:16:19;;;;;;;33.47;12.18;;;;;;;3.25;95.45;100167.53;10501990;28;20491;-74
2021/12/15 02:21:24;;;;;;;27.85;13.00;;;;;;;2.64;95.40;100074.47;10483390;28;20048;-74
2021/12/15 02:26:33;;;;;;;27.10;13.02;;;;;;;3.54;95.49;100215.88;10501682;28;20045;-74
2021/12/15 02:42:05;;;;;;;30.23;13.00;;;;;;;4.20;96.59;100330.47;10500917;28;20036;-74
2021/12/15 02:47:06;;;;;;;25.25;12.38;;;;;;;3.19;96.06;100153.09;10501783;28;20040;-75
2021/12/15 02:52:08;;;;;;;24.60;11.60;;;;;;;4.34;96.38;100338.06;10501287;28;20056;-74
2021/12/15 02:57:12;;;;;;;26.40;12.52;;;;;;;4.17;96.00;100322.84;10482726;28;20047;-74
2021/12/15 03:08:04;;;;;;;29.13;12.85;;;;;;;4.26;97.11;100343.13;10472723;28;20041;-74
2021/12/15 03:18:21;;;;;;;26.58;12.52;;;;;;;3.26;95.96;100182.31;10498485;28;20036;-74
2021/12/15 03:23:51;;;;;;;29.33;13.65;;;;;;;4.28;96.54;100338.56;10498960;28;20087;-74
2021/12/15 03:39:30;;;;;;;27.73;14.30;;;;;;;4.38;96.53;100352.63;10498487;28;20044;-74
2021/12/15 03:44:35;;;;;;;29.83;14.50;;;;;;;4.16;96.79;100319.38;10497143;28;20091;-74
2021/12/15 03:49:36;;;;;;;25.50;13.30;;;;;;;4.15;96.68;100311.63;10493576;28;20059;-74
2021/12/15 03:54:37;;;;;;;27.83;13.85;;;;;;;4.33;96.28;100328.47;10493737;28;20045;-76
2021/12/15 03:59:42;;;;;;;34.08;14.35;;;;;;;4.10;96.90;100302.31;10493104;28;20496;-75
2021/12/15 04:04:45;;;;;;;29.77;14.23;;;;;;;4.43;96.19;100346.94;10467776;28;20515;-73
2021/12/15 04:09:49;;;;;;;33.83;14.95;;;;;;;4.48;96.83;100357.94;10492998;28;20071;-71
2021/12/15 04:15:07;;;;;;;32.93;14.67;;;;;;;2.63;96.20;100056.22;10478384;28;20404;-70
2021/12/15 04:20:13;;;;;;;34.25;14.68;;;;;;;3.78;97.00;100248.97;10497196;28;20121;-75
2021/12/15 04:25:21;;;;;;;31.63;14.35;;;;;;;3.91;96.61;100259.28;10466049;28;20045;-71
2021/12/15 04:30:24;;;;;;;37.65;14.65;;;;;;;4.31;96.15;100330.44;10476156;28;20045;-80
2021/12/15 04:35:25;;;;;;;31.45;15.13;;;;;;;4.34;96.52;100345.94;10455549;28;20063;-74
2021/12/15 04:40:26;;;;;;;29.05;14.15;;;;;;;4.20;96.51;100312.06;10455021;28;20510;-73
2021/12/15 04:45:27;;;;;;;32.10;14.18;;;;;;;3.71;97.00;100218.88;10470883;28;20078;-72
2021/12/15 04:50:30;;;;;;;34.17;14.73;;;;;;;4.19;96.87;100286.72;10477806;28;20048;-74
2021/12/15 04:55:33;;;;;;;30.60;15.38;;;;;;;4.29;96.94;100300.78;10496238;28;20036;-76
2021/12/15 05:00:39;;;;;;;27.85;14.52;;;;;;;3.75;96.24;100212.44;10477899;28;20097;-73
2021/12/15 05:05:40;;;;;;;29.55;14.57;;;;;;;4.60;96.48;100354.28;10495534;28;20033;-73
2021/12/15 05:10:41;;;;;;;30.52;13.93;;;;;;;4.50;95.97;100335.81;10496199;28;20032;-73
2021/12/15 05:15:42;;;;;;;27.52;12.60;;;;;;;3.88;96.38;100229.66;10496298;28;20106;-73
2021/12/15 05:20:48;;;;;;;21.23;10.90;;;;;;;4.29;95.48;100313.94;10495894;28;20123;-73
2021/12/15 05:25:49;;;;;;;25.35;11.68;;;;;;;4.25;95.43;100302.03;10477977;28;20040;-73
2021/12/15 05:30:50;;;;;;;20.33;11.63;;;;;;;4.06;95.12;100260.63;10495431;28;20461;-73
2021/12/15 05:35:53;;;;;;;20.85;11.10;;;;;;;4.19;94.87;100306.00;10495992;28;20036;-73
2021/12/15 05:40:56;;;;;;;25.03;10.10;;;;;;;3.70;94.70;100217.22;10480717;28;20059;-73
2021/12/15 05:45:57;;;;;;;20.90;10.15;;;;;;;3.48;94.08;100170.91;10503640;28;20051;-73
2021/12/15 05:50:58;;;;;;;20.83;10.02;;;;;;;4.71;93.62;100358.63;10502618;28;20068;-73
2021/12/15 05:55:59;;;;;;;21.67;11.55;;;;;;;4.68;93.48;100337.84;10484966;28;20041;-73
2021/12/15 06:01:00;;;;;;;22.73;12.73;;;;;;;4.77;92.53;100352.84;10502438;28;20074;-73
2021/12/15 06:06:01;;;;;;;23.17;13.07;;;;;;;3.78;92.73;100206.91;10503185;28;20044;-74
2021/12/15 06:11:03;;;;;;;24.88;13.13;;;;;;;4.57;92.83;100355.34;10484655;28;20055;-73
2021/12/15 06:16:05;;;;;;;24.63;13.35;;;;;;;4.65;93.22;100346.81;10502754;28;20158;-73
2021/12/15 06:21:06;;;;;;;25.05;13.43;;;;;;;4.68;93.43;100379.94;10501368;28;20243;-73
2021/12/15 06:26:08;;;;;;;31.63;13.45;;;;;;;4.61;93.23;100348.06;10483688;28;20032;-73
2021/12/15 06:31:12;;;;;;;22.35;11.27;;;;;;;4.52;93.25;100333.06;10483832;28;20480;-74
2021/12/15 06:36:14;;;;;;;23.02;12.85;;;;;;;4.72;92.92;100376.91;10501254;28;20040;-74
2021/12/15 06:41:15;;;;;;;23.05;12.45;;;;;;;4.46;93.51;100346.72;10500433;28;20048;-73
2021/12/15 07:02:39;;;;;;;25.33;12.55;;;;;;;4.39;93.99;100387.63;10473517;28;20569;-74
2021/12/15 07:07:44;;;;;;;25.85;12.73;;;;;;;4.64;94.18;100410.13;10482690;28;20040;-73
2021/12/15 07:12:45;;;;;;;25.80;13.05;;;;;;;4.18;93.73;100288.53;10499248;28;20525;-73
2021/12/15 07:17:49;;;;;;;26.60;12.68;;;;;;;4.84;93.55;100364.50;10499292;28;20042;-74
2021/12/15 07:22:50;;;;;;;30.02;13.57;;;;;;;4.31;92.91;100283.09;10499612;28;20408;-75
2021/12/15 07:27:52;;;;;;;29.77;14.07;;;;;;;4.15;93.58;100248.50;10480987;28;20122;-73
2021/12/15 07:32:54;;;;;;;26.08;12.95;;;;;;;4.85;93.04;100368.84;10498340;28;20077;-73
2021/12/15 07:37:55;;;;;;;26.10;12.98;;;;;;;4.77;92.51;100331.81;10498181;28;20484;-73
2021/12/15 07:43:10;;;;;;;25.48;13.77;;;;;;;4.67;92.75;100336.19;10498643;28;20044;-73
2021/12/15 07:48:15;;;;;;;34.35;14.25;;;;;;;4.19;93.33;100242.03;10498855;28;20551;-74
2021/12/15 07:53:18;;;;;;;30.50;14.50;;;;;;;5.02;93.89;100373.47;10498697;28;20043;-73
2021/12/15 07:58:20;;;;;;;29.00;14.20;;;;;;;4.81;93.07;100327.94;10498068;28;20079;-73
2021/12/15 08:03:21;;;;;;;34.70;15.60;;;;;;;4.94;93.62;100354.06;10497790;28;20051;-73
2021/12/15 08:08:22;;;;;;;35.20;15.40;;;;;;;4.86;93.45;100315.22;10479736;28;20049;-74
2021/12/15 08:13:27;;;;;;;28.88;15.55;;;;;;;4.83;93.02;100298.88;10497737;28;20036;-74
2021/12/15 08:18:28;;;;;;;26.48;12.80;;;;;;;4.95;93.96;100324.13;10497565;28;20206;-74
2021/12/15 08:23:31;;;;;;;21.40;12.32;;;;;;;4.97;93.48;100312.50;10497138;28;20041;-74
2021/12/15 08:28:32;;;;;;;24.02;11.77;;;;;;;5.21;92.72;100345.56;10478538;28;20408;-73
2021/12/15 08:33:34;;;;;;;23.10;12.27;;;;;;;4.43;92.90;100236.47;10496292;28;20071;-73
2021/12/15 08:38:38;;;;;;;24.45;11.90;;;;;;;5.14;93.22;100336.53;10497560;28;20047;-73
2021/12/15 08:43:39;;;;;;;23.13;12.43;;;;;;;5.17;92.74;100300.22;10496943;28;20036;-73
2021/12/15 08:48:42;;;;;;;25.02;12.38;;;;;;;5.49;91.80;100315.81;10496127;28;20085;-73
2021/12/15 08:53:44;;;;;;;24.77;12.73;;;;;;;4.66;91.87;100166.09;10495662;28;20055;-73
2021/12/15 08:58:45;;;;;;;31.05;13.20;;;;;;;5.58;91.30;100287.00;10495449;28;20037;-73
2021/12/15 09:03:46;;;;;;;25.60;13.50;;;;;;;5.58;91.66;100305.44;10496031;28;20036;-74
2021/12/15 09:08:48;;;;;;;24.38;12.75;;;;;;;5.64;91.46;100316.25;10495733;28;20036;-74
2021/12/15 09:13:52;;;;;;;21.60;12.15;;;;;;;4.39;91.56;100107.03;10494545;28;20094;-73
2021/12/15 09:18:54;;;;;;;28.90;12.65;;;;;;;5.38;91.67;100299.31;10495100;28;20036;-74
2021/12/15 09:23:55;;;;;;;26.13;12.05;;;;;;;4.44;92.57;100167.16;10495033;28;20458;-74
2021/12/15 09:28:57;;;;;;;24.80;12.23;;;;;;;5.21;92.99;100296.38;10478052;28;20075;-73
2021/12/15 09:33:59;;;;;;;20.85;11.02;;;;;;;4.43;93.20;100157.56;10494871;28;20519;-73
2021/12/15 09:39:06;;;;;;;23.80;11.93;;;;;;;4.65;92.80;100183.69;10476872;28;20147;-73
2021/12/15 09:44:11;;;;;;;23.58;12.00;;;;;;;5.55;92.93;100300.44;10477270;28;20403;-73
2021/12/15 10:05:52;;;;;;;22.63;11.38;;;;;;;5.21;92.83;100287.63;10494836;28;20043;-73
2021/12/15 10:21:05;;;;;;;16.52;9.00;;;;;;;5.33;93.16;100265.47;10493853;28;20675;-73
2021/12/15 10:26:08;;;;;;;11.50;6.72;;;;;;;5.19;92.61;100198.22;10494838;28;20043;-74
2021/12/15 10:31:13;;;;;;;11.85;6.75;;;;;;;6.04;91.01;100325.06;10501943;28;20128;-73
2021/12/15 10:36:19;;;;;;;11.60;6.88;;;;;;;5.99;90.34;100308.84;10501024;28;20098;-73
2021/12/15 10:41:33;;;;;;;15.70;7.05;;;;;;;5.98;90.33;100299.25;10501069;28;20090;-73
2021/12/15 10:46:40;;;;;;;11.52;6.57;;;;;;;6.10;90.44;100308.69;10500510;28;20555;-73
2021/12/15 10:51:47;;;;;;;12.35;6.03;;;;;;;6.08;89.97;100293.00;10501126;28;20052;-73
2021/12/15 10:56:56;;;;;;;12.77;6.40;;;;;;;5.91;89.66;100283.13;10500780;28;20532;-73
2021/12/15 11:01:56;;;;;;;12.05;6.10;;;;;;;5.03;91.04;100146.09;10482689;28;20044;-74
2021/12/15 11:07:09;;;;;;;12.75;5.93;;;;;;;5.81;90.89;100269.13;10500480;28;20040;-73
2021/12/15 11:12:28;;;;;;;11.20;5.70;;;;;;;4.76;90.74;100116.97;10501034;28;20033;-73
2021/12/15 11:17:35;;;;;;;14.43;7.20;;;;;;;6.01;90.77;100262.06;10500782;28;20074;-73
2021/12/15 11:22:47;;;;;;;12.23;6.50;;;;;;;6.23;91.19;100263.56;10499453;28;20128;-73
2021/12/15 11:27:52;;;;;;;12.88;6.60;;;;;;;5.89;91.03;100183.09;10500101;28;20041;-73
2021/12/15 11:32:55;;;;;;;10.52;6.15;;;;;;;6.39;90.75;100255.88;10498652;28;20044;-73
2021/12/15 11:38:10;;;;;;;13.38;7.22;;;;;;;6.15;91.90;100193.03;10498129;28;20507;-73
2021/12/15 11:43:31;;;;;;;13.75;7.35;;;;;;;5.44;91.97;100067.78;10498286;28;20538;-73
2021/12/15 11:48:34;;;;;;;14.95;7.78;;;;;;;6.32;91.55;100208.13;10498142;28;20570;-73
2021/12/15 11:53:42;;;;;;;12.68;7.07;;;;;;;6.79;91.46;100278.50;10497931;28;20471;-73
2021/12/15 11:58:44;;;;;;;15.15;8.18;;;;;;;6.71;92.26;100295.09;10497992;28;20037;-73
2021/12/15 12:04:14;;;;;;;19.13;8.35;;;;;;;6.47;93.01;100245.44;10497091;28;20040;-73
2021/12/15 12:09:18;;;;;;;15.38;8.57;;;;;;;6.72;92.95;100312.59;10497671;28;20090;-73
2021/12/15 12:14:37;;;;;;;16.37;7.80;;;;;;;6.55;92.75;100274.59;10498557;28;20075;-73
2021/12/15 12:20:04;;;;;;;13.35;7.80;;;;;;;6.86;93.30;100306.84;10478959;28;20048;-75
2021/12/15 12:25:28;;;;;;;16.25;8.13;;;;;;;6.76;93.11;100282.31;10497719;28;20105;-73
2021/12/15 12:30:37;;;;;;;18.77;8.43;;;;;;;6.82;93.11;100297.56;10496406;28;20044;-73
2021/12/15 12:35:54;;;;;;;21.20;9.20;;;;;;;6.20;94.13;100201.38;10495404;28;20033;-75
2021/12/15 12:41:01;;;;;;;19.90;9.32;;;;;;;5.63;93.68;100130.13;10486373;28;20416;-74
2021/12/15 12:46:15;;;;;;;16.50;9.82;;;;;;;5.89;94.56;100198.91;10450229;28;20088;-74
2021/12/15 13:01:54;;;;;;;19.45;9.65;;;;;;;5.63;93.40;100121.41;10488982;28;20036;-73
2021/12/15 13:06:55;;;;;;;28.65;9.60;;;;;;;6.01;93.71;100177.66;10485613;28;20036;-73
2021/12/15 13:11:57;;;;;;;21.33;9.43;;;;;;;6.91;93.77;100318.78;10484613;28;20033;-73
2021/12/15 13:17:03;;;;;;;24.65;10.82;;;;;;;6.99;93.48;100324.16;10470493;28;20052;-72
2021/12/15 13:32:38;;;;;;;17.75;9.65;;;;;;;6.75;94.33;100277.16;10489760;28;20712;-73
2021/12/15 13:37:59;;;;;;;17.98;10.38;;;;;;;6.21;95.36;100191.66;10482585;28;20504;-73
2021/12/15 13:43:03;;;;;;;22.83;10.77;;;;;;;6.61;94.71;100270.53;10453870;28;20072;-72
2021/12/15 13:48:06;;;;;;;20.77;11.23;;;;;;;6.91;95.21;100337.25;10464472;28;20057;-74
2021/12/15 13:53:06;;;;;;;19.40;11.10;;;;;;;6.97;95.55;100345.47;10454153;28;20045;-72
2021/12/15 13:58:10;;;;;;;21.02;10.23;;;;;;;6.08;94.99;100202.50;10452784;28;20393;-72
2021/12/15 14:03:19;;;;;;;16.20;8.80;;;;;;;5.95;95.24;100192.25;10459300;28;20497;-73
2021/12/15 14:08:28;;;;;;;29.05;11.55;;;;;;;6.66;95.42;100301.78;10481882;28;20051;-74
2021/12/15 14:13:41;;;;;;;19.00;10.57;;;;;;;6.90;95.65;100340.88;10464015;28;20408;-73
2021/12/15 14:18:42;;;;;;;19.92;9.50;;;;;;;6.92;95.27;100352.97;10460783;28;20056;-73
2021/12/15 14:23:49;;;;;;;22.13;11.10;;;;;;;6.95;95.68;100370.34;10461333;28;20111;-72
2021/12/15 14:28:54;;;;;;;23.15;12.65;;;;;;;6.88;95.57;100337.56;10501530;28;20052;-72
2021/12/15 14:33:59;;;;;;;23.40;11.02;;;;;;;6.89;95.88;100344.50;10483723;28;20115;-73
2021/12/15 14:39:05;;;;;;;21.77;11.07;;;;;;;7.01;95.63;100359.22;10500751;28;20040;-73
2021/12/15 14:44:13;;;;;;;21.23;10.38;;;;;;;6.28;95.24;100246.34;10499585;28;20044;-72
2021/12/15 14:49:33;;;;;;;25.17;12.48;;;;;;;7.09;95.85;100369.88;10501244;28;20060;-72
2021/12/15 14:54:35;;;;;;;22.10;10.43;;;;;;;7.14;95.30;100380.00;10499140;28;20140;-72
2021/12/15 14:59:42;;;;;;;21.95;9.73;;;;;;;6.23;95.53;100230.09;10500849;28;20470;-74
2021/12/15 15:05:11;;;;;;;16.73;8.85;;;;;;;6.57;95.45;100293.75;10483761;28;20041;-73
2021/12/15 15:10:15;;;;;;;24.15;9.75;;;;;;;6.28;95.62;100261.31;10495554;28;20531;-73
2021/12/15 15:15:26;;;;;;;16.38;9.00;;;;;;;6.27;95.47;100263.13;10497515;28;20431;-72
2021/12/15 15:20:34;;;;;;;17.60;9.73;;;;;;;6.88;95.87;100369.25;10500110;28;20047;-72
2021/12/15 15:25:38;;;;;;;18.13;9.43;;;;;;;7.12;96.18;100416.28;10499057;28;20041;-72
2021/12/15 15:30:41;;;;;;;18.75;9.68;;;;;;;6.26;95.72;100273.84;10500002;28;20405;-72
2021/12/15 15:35:46;;;;;;;19.90;10.35;;;;;;;5.97;96.22;100242.22;10498753;28;20137;-72
2021/12/15 15:40:53;;;;;;;22.67;10.60;;;;;;;6.24;96.29;100312.69;10498487;28;20051;-72
2021/12/15 15:45:54;;;;;;;26.13;11.95;;;;;;;6.14;95.55;100304.81;10497583;28;20040;-75
2021/12/15 15:51:20;;;;;;;28.58;12.32;;;;;;;6.81;95.46;100425.25;10450788;28;20114;-72
2021/12/15 15:56:23;;;;;;;26.35;12.48;;;;;;;6.30;95.54;100378.91;10456641;28;20069;-72
2021/12/15 16:01:25;;;;;;;25.50;13.23;;;;;;;5.72;95.47;100289.25;10456702;28;20399;-72
2021/12/15 16:06:28;;;;;;;30.25;13.85;;;;;;;6.38;95.56;100416.00;10455873;28;20045;-72
2021/12/15 16:11:34;;;;;;;24.27;13.68;;;;;;;6.45;95.69;100433.91;10455762;28;20119;-72
2021/12/15 16:16:46;;;;;;;26.33;13.48;;;;;;;6.15;95.49;100396.97;10456345;28;20045;-73
2021/12/15 16:26:53;;;;;;;29.80;13.70;;;;;;;5.00;95.72;100217.47;10455633;28;20412;-72
2021/12/15 16:32:14;;;;;;;29.77;14.18;;;;;;;6.14;95.48;100408.50;10455005;28;20374;-72
2021/12/15 16:37:27;;;;;;;27.48;14.52;;;;;;;6.19;96.38;100437.09;10448461;28;20041;-72
2021/12/15 16:42:28;;;;;;;30.00;14.32;;;;;;;5.81;95.52;100400.94;10447335;28;20048;-72
2021/12/15 16:47:34;;;;;;;25.45;13.60;;;;;;;5.35;96.42;100336.44;10426708;28;20086;-74
2021/12/15 16:52:38;;;;;;;26.40;13.02;;;;;;;5.85;96.76;100440.06;10451884;28;20409;-72
2021/12/15 16:57:46;;;;;;;22.17;12.40;;;;;;;5.15;96.92;100354.00;10446893;28;20080;-73
2021/12/15 17:02:53;;;;;;;24.73;13.00;;;;;;;5.14;96.59;100378.66;10444437;28;20041;-74
2021/12/15 17:07:57;;;;;;;26.30;13.80;;;;;;;5.21;96.21;100416.69;10438764;28;20052;-72
2021/12/15 17:13:04;;;;;;;25.73;13.35;;;;;;;5.30;96.77;100429.06;10438386;28;20082;-73
2021/12/15 17:18:26;;;;;;;20.30;11.20;;;;;;;5.56;96.86;100468.13;10435259;28;20472;-72
2021/12/15 17:23:34;;;;;;;22.80;11.80;;;;;;;4.43;96.85;100324.13;10428556;28;20543;-72
2021/12/15 17:28:38;;;;;;;19.17;10.43;;;;;;;5.17;96.71;100436.31;10437782;28;20057;-72
2021/12/15 17:33:51;;;;;;;;;;;;;;;5.55;97.59;100491.00;10442740;28;20063;-72
2021/12/15 17:39:21;;;;;;;20.98;10.48;;;;;;;4.75;97.36;100367.94;10461135;28;19928;-72
2021/12/15 17:44:40;;;;;;;19.55;11.45;;;;;;;5.51;97.42;100508.06;10462734;28;20562;-72
2021/12/15 17:49:44;;;;;;;23.00;12.88;;;;;;;5.53;97.35;100503.47;10462268;28;20060;-72
2021/12/15 17:54:56;;;;;;;25.88;12.40;;;;;;;5.30;97.91;100465.94;10449809;28;20566;-72
2021/12/15 17:59:59;;;;;;;21.73;12.57;;;;;;;5.53;97.71;100497.38;10413061;28;20081;-72
2021/12/15 18:05:00;;;;;;;20.90;11.85;;;;;;;5.01;96.73;100403.41;10460975;28;20140;-72
2021/12/15 18:10:01;;;;;;;21.40;11.13;;;;;;;5.33;96.77;100470.94;10453579;28;20041;-72
2021/12/15 18:15:03;;;;;;;21.50;12.50;;;;;;;5.62;97.24;100528.19;10419169;28;20416;-72
2021/12/15 18:20:06;;;;;;;29.05;13.13;;;;;;;5.32;96.69;100474.53;10419587;28;20045;-72
2021/12/15 18:25:07;;;;;;;26.63;11.77;;;;;;;5.21;96.86;100478.09;10411441;28;20132;-72
2021/12/15 18:30:09;;;;;;;21.63;10.95;;;;;;;5.30;97.21;100484.38;10457042;28;20029;-73
2021/12/15 18:35:11;;;;;;;27.40;12.30;;;;;;;4.68;97.28;100379.94;10444861;28;20045;-72
2021/12/15 18:40:12;;;;;;;31.20;13.05;;;;;;;5.60;97.63;100540.69;10459836;28;20045;-72
2021/12/15 18:45:15;;;;;;;27.00;12.85;;;;;;;5.66;97.72;100529.63;10432245;28;20461;-72
2021/12/15 18:50:19;;;;;;;28.02;13.63;;;;;;;5.43;98.03;100489.44;10416997;28;20057;-72
2021/12/15 18:55:22;;;;;;;30.48;12.85;;;;;;;5.04;97.99;100421.56;10418118;28;20041;-71
2021/12/15 19:00:27;;;;;;;36.67;15.95;;;;;;;5.70;98.53;100523.13;10424669;28;20118;-72
2021/12/15 19:05:28;;;;;;;29.15;14.75;;;;;;;5.80;97.82;100537.16;10458180;28;20041;-72
2021/12/15 19:10:29;;;;;;;32.60;16.58;;;;;;;5.87;98.59;100533.03;10459498;28;20047;-72
2021/12/15 19:15:30;;;;;;;29.98;12.65;;;;;;;5.90;97.82;100542.50;10458259;28;20047;-72
2021/12/15 19:20:33;;;;;;;24.48;12.52;;;;;;;5.74;97.66;100495.50;10458349;28;20563;-72
2021/12/15 19:25:35;;;;;;;26.85;12.32;;;;;;;5.94;98.18;100539.47;10458287;28;20119;-72
2021/12/15 19:30:42;;;;;;;23.52;12.70;;;;;;;5.81;98.17;100528.31;10440364;28;20044;-72
2021/12/15 19:35:45;;;;;;;34.13;13.48;;;;;;;5.99;98.19;100560.19;10457470;28;20033;-72
2021/12/15 19:40:49;;;;;;;28.85;13.73;;;;;;;5.30;97.86;100428.22;10454635;28;20051;-72
2021/12/15 19:45:51;;;;;;;25.45;13.30;;;;;;;5.07;97.78;100388.06;10457536;28;20547;-72
2021/12/15 19:50:54;;;;;;;24.48;12.25;;;;;;;6.04;98.11;100544.81;10485399;28;20440;-72
2021/12/15 19:55:58;;;;;;;26.08;11.88;;;;;;;5.11;98.07;100397.34;10497927;28;20046;-72
2021/12/15 20:01:06;;;;;;;22.98;11.57;;;;;;;5.82;98.29;100493.06;10479464;28;20419;-72
2021/12/15 20:06:09;;;;;;;19.63;11.40;;;;;;;5.98;98.44;100532.13;10497830;28;20488;-72
2021/12/15 20:11:17;;;;;;;20.65;10.95;;;;;;;5.57;98.31;100446.09;10498420;28;20546;-73
2021/12/15 20:16:24;;;;;;;29.23;11.15;;;;;;;5.40;98.34;100424.66;10480156;28;20381;-72
2021/12/15 20:21:27;;;;;;;19.33;10.55;;;;;;;5.44;98.48;100425.22;10497510;28;20101;-72
2021/12/15 20:26:28;;;;;;;21.60;10.63;;;;;;;6.35;99.24;100569.31;10476563;28;20139;-72
2021/12/15 20:31:29;;;;;;;24.20;11.80;;;;;;;5.69;98.86;100445.03;10455621;28;20083;-72
2021/12/15 20:36:31;;;;;;;23.45;11.50;;;;;;;6.58;99.24;100596.31;10455704;28;20102;-72
2021/12/15 20:41:35;;;;;;;20.10;10.60;;;;;;;5.68;99.17;100441.56;10455482;28;20518;-72
2021/12/15 20:46:36;;;;;;;26.63;13.38;;;;;;;6.47;99.46;100567.41;10455173;28;20094;-72
2021/12/15 20:51:37;;;;;;;22.65;10.45;;;;;;;6.58;99.27;100579.63;10455435;28;20063;-72
2021/12/15 20:56:40;;;;;;;20.90;9.88;;;;;;;5.91;99.82;100442.16;10455366;28;20492;-72
2021/12/15 21:01:42;;;;;;;30.30;16.13;;;;;;;6.68;99.21;100559.38;10454298;28;20504;-72
2021/12/15 21:06:47;;;;;;;23.70;13.88;;;;;;;6.82;99.14;100582.75;10454405;28;20539;-72
2021/12/15 21:11:52;;;;;;;22.77;12.90;;;;;;;6.83;98.59;100592.31;10435948;28;20037;-72
2021/12/15 21:16:54;;;;;;;16.67;9.07;;;;;;;5.31;98.55;100346.44;10453884;28;20123;-72
2021/12/15 21:21:58;;;;;;;19.77;9.15;;;;;;;6.82;98.22;100582.75;10453840;28;20136;-72
2021/12/15 21:27:01;;;;;;;18.27;8.27;;;;;;;6.88;98.47;100609.53;10453836;28;20041;-72
2021/12/15 21:32:02;;;;;;;15.90;7.68;;;;;;;6.89;98.35;100598.84;10454513;28;20049;-72
2021/12/15 21:37:03;;;;;;;17.10;8.05;;;;;;;6.93;98.27;100609.97;10453440;28;20045;-72
2021/12/15 21:42:06;;;;;;;14.32;7.40;;;;;;;6.94;98.41;100606.34;10453314;28;20132;-72
2021/12/15 21:47:08;;;;;;;15.93;7.38;;;;;;;6.89;98.70;100595.38;10453658;28;20136;-72
2021/12/15 21:52:09;;;;;;;14.68;7.00;;;;;;;6.70;98.63;100548.66;10454395;28;20052;-71
2021/12/15 21:57:10;;;;;;;11.50;6.55;;;;;;;6.35;99.12;100491.97;10454217;28;20098;-72
2021/12/15 22:02:12;;;;;;;12.68;6.60;;;;;;;6.34;98.94;100487.66;10453543;28;20136;-71
2021/12/15 22:07:13;;;;;;;9.45;4.82;;;;;;;6.92;98.55;100573.97;10452868;28;20039;-72
2021/12/15 22:12:16;;;;;;;7.43;4.68;;;;;;;6.97;98.45;100592.88;10436000;28;20493;-72
2021/12/15 22:17:17;;;;;;;9.48;4.88;;;;;;;6.44;98.19;100493.78;10453502;28;20075;-72
2021/12/15 22:22:19;;;;;;;7.80;3.92;;;;;;;7.16;98.59;100618.47;10454595;28;20076;-71
2021/12/15 22:27:20;;;;;;;11.48;4.50;;;;;;;7.21;98.61;100632.09;10460517;28;20497;-72
2021/12/15 22:32:26;;;;;;;8.25;4.05;;;;;;;7.09;98.45;100599.72;10460336;28;20045;-72
2021/12/15 22:37:27;;;;;;;8.20;4.22;;;;;;;7.05;98.08;100582.44;10460835;28;20044;-75
2021/12/15 22:42:28;;;;;;;10.15;5.57;;;;;;;6.84;98.12;100558.81;10459849;28;20048;-72
2021/12/15 22:47:29;;;;;;;11.68;6.18;;;;;;;7.09;98.42;100607.63;10460164;28;20045;-72
2021/12/15 22:52:30;;;;;;;14.23;7.35;;;;;;;6.96;97.96;100589.41;10459792;28;20079;-72
2021/12/15 22:57:32;;;;;;;10.73;4.82;;;;;;;7.22;98.01;100647.81;10460172;28;20564;-72
2021/12/15 23:02:33;;;;;;;9.90;5.88;;;;;;;7.24;98.21;100642.38;10459760;28;20040;-71
2021/12/15 23:07:35;;;;;;;16.33;6.22;;;;;;;6.81;98.40;100588.13;10458924;28;20033;-72
2021/12/15 23:12:35;;;;;;;8.18;4.53;;;;;;;6.38;98.72;100520.72;10459473;28;20401;-72
2021/12/15 23:17:42;;;;;;;10.43;4.55;;;;;;;7.25;98.35;100678.41;10459153;28;20041;-72
2021/12/15 23:22:44;;;;;;;9.18;5.00;;;;;;;6.39;98.56;100540.84;10458674;28;20056;-74
2021/12/15 23:27:48;;;;;;;9.68;4.80;;;;;;;6.80;98.25;100611.06;10458200;28;20041;-71
2021/12/15 23:32:50;;;;;;;9.02;4.82;;;;;;;6.34;98.66;100545.69;10458040;28;20127;-72
2021/12/15 23:38:10;;;;;;;8.57;4.35;;;;;;;6.96;99.00;100651.97;10457834;28;20048;-72
2021/12/15 23:43:37;;;;;;;10.15;5.15;;;;;;;7.21;98.68;100699.00;10457726;28;20493;-72
